LYBE/BEG METAR and TAF weather

Enter ICAO airport designator
Station Type Date Time Source
LYBE METAR 2017/09/24 13:30 UTC NOAA

LYBE 241330Z 02007KT 9999 SCT043 20/10 Q1020 NOSIG


Station Type Date Time Source
LYBE Decoded METAR 2017/09/24 13:30 UTC NOAA

Beograd / Surcin, Serbia and Montenegro (LYBE) 44-49N 020-17E 99M
Sep 24, 2017 - 09:30 AM EDT / 2017.09.24 1330 UTC
Wind: from the NNE (020 degrees) at 8 MPH (7 KT):0
Visibility: greater than 7 mile(s):0
Sky conditions: partly cloudy
Temperature: 68 F (20 C)
Dew Point: 50 F (10 C)
Relative Humidity: 52%
Pressure (altimeter): 30.12 in. Hg (1020 hPa)
ob: LYBE 241330Z 02007KT 9999 SCT043 20/10 Q1020 NOSIG
cycle: 13

Station Type Date Time Source
LYBE TAF 2017/09/24 12:21 UTC NOAA

TAF LYBE 241100Z 2412/2512 04006KT 9999 SCT040 TX23/2512Z TN09/2504Z
TEMPO 2423/2504 4000 BR
BECMG 2505/2507 9999 NSW
BECMG 2508/2510 11012KT


Example: see airport list